Time;durP1;ratioP1;P1;durP2;ratioP2;P2;SDS_P1;SDS_P2;PMS_P1;PMS_P2;Temp;Humidity;BMP_temperature;BMP_pressure;BME280_temperature;BME280_humidity;BME280_pressure;Samples;Min_cycle;Max_cycle;Signal;HPM_P1;HPM_P2
2023/03/28 00:00:59;;;;;;;4.78;1.10;;;1.30;1.00;;;;;;5007197;28;20144;-74
2023/03/28 00:03:26;;;;;;;3.63;1.77;;;1.30;1.00;;;;;;5002703;28;20045;-74
2023/03/28 00:05:55;;;;;;;2.55;1.00;;;1.30;1.00;;;;;;5000273;28;20360;-80
2023/03/28 00:08:22;;;;;;;2.45;1.10;;;1.30;1.00;;;;;;5008986;28;20037;-74
2023/03/28 00:10:48;;;;;;;4.22;1.25;;;1.20;1.00;;;;;;4999527;28;20035;-81
2023/03/28 00:13:14;;;;;;;9.30;1.77;;;1.20;1.00;;;;;;4999972;28;20039;-73
2023/03/28 00:15:43;;;;;;;4.78;1.27;;;1.20;1.00;;;;;;5001464;28;20054;-73
2023/03/28 00:18:13;;;;;;;6.50;1.60;;;1.10;1.00;;;;;;5005017;28;20033;-73
2023/03/28 00:20:42;;;;;;;3.08;1.45;;;1.10;1.00;;;;;;5003276;28;20485;-73
2023/03/28 00:23:10;;;;;;;5.65;2.75;;;1.10;1.00;;;;;;5003639;28;20477;-74
2023/03/28 00:25:39;;;;;;;5.65;2.20;;;1.10;1.00;;;;;;5003622;28;20037;-74
2023/03/28 00:28:05;;;;;;;7.25;2.38;;;1.00;1.00;;;;;;5002379;28;20054;-74
2023/03/28 00:30:32;;;;;;;7.32;1.98;;;0.80;1.00;;;;;;4989825;28;20046;-75
2023/03/28 00:32:58;;;;;;;4.82;2.03;;;0.60;1.00;;;;;;5004202;28;20257;-74
2023/03/28 00:35:24;;;;;;;6.00;1.55;;;0.60;1.00;;;;;;5003552;28;20360;-73
2023/03/28 00:37:56;;;;;;;6.15;3.13;;;0.50;1.00;;;;;;5001771;28;20026;-74
2023/03/28 00:40:26;;;;;;;3.33;1.10;;;0.30;1.00;;;;;;4997363;28;20069;-74
2023/03/28 00:42:53;;;;;;;2.88;1.08;;;0.30;1.00;;;;;;5004867;28;20037;-74
2023/03/28 00:45:22;;;;;;;3.13;0.77;;;0.10;1.00;;;;;;4988519;28;20041;-74
2023/03/28 00:48:00;;;;;;;5.18;1.23;;;0.10;1.00;;;;;;4999209;28;20490;-80
2023/03/28 00:50:31;;;;;;;7.13;2.15;;;0.00;1.00;;;;;;5003095;28;20034;-74
2023/03/28 00:53:07;;;;;;;4.07;1.30;;;0.00;1.00;;;;;;5009876;28;20041;-73
2023/03/28 00:55:43;;;;;;;5.00;1.70;;;0.00;1.00;;;;;;4995525;28;20055;-74
2023/03/28 00:58:14;;;;;;;5.03;1.63;;;0.00;1.00;;;;;;4992738;28;20573;-73
2023/03/28 01:00:46;;;;;;;;;;;0.00;1.00;;;;;;4996658;28;20069;-73
2023/03/28 01:03:17;;;;;;;3.45;1.35;;;0.00;1.00;;;;;;4993359;28;19964;-74
2023/03/28 01:05:46;;;;;;;5.43;1.70;;;0.00;1.00;;;;;;5013524;28;20057;-80
2023/03/28 01:08:19;;;;;;;6.38;1.55;;;-0.10;1.00;;;;;;4988176;28;20926;-73
2023/03/28 01:10:46;;;;;;;4.50;1.25;;;-0.10;1.00;;;;;;5004449;28;20046;-73
2023/03/28 01:13:15;;;;;;;3.67;1.40;;;-0.10;1.00;;;;;;5005329;28;20027;-73
2023/03/28 01:15:43;;;;;;;3.28;1.17;;;-0.20;1.00;;;;;;4984316;28;20395;-77
2023/03/28 01:18:15;;;;;;;4.43;2.25;;;-0.30;1.00;;;;;;4990348;28;20057;-73
2023/03/28 01:21:06;;;;;;;4.50;1.85;;;-0.30;1.00;;;;;;4989682;28;20514;-74
2023/03/28 01:24:06;;;;;;;6.78;1.55;;;-0.40;1.00;;;;;;5001654;28;20042;-73
2023/03/28 01:26:44;;;;;;;2.88;1.23;;;-0.50;1.00;;;;;;4985435;28;20047;-74
2023/03/28 01:29:31;;;;;;;2.55;1.13;;;-0.50;1.00;;;;;;5003985;28;20045;-74
2023/03/28 01:32:50;;;;;;;4.63;1.92;;;-0.50;1.00;;;;;;4985983;28;20049;-74
2023/03/28 01:35:44;;;;;;;3.45;1.02;;;-0.60;1.00;;;;;;4982748;28;20049;-74
2023/03/28 01:38:47;;;;;;;6.55;1.80;;;-0.70;1.00;;;;;;5004516;28;20560;-74
2023/03/28 01:41:28;;;;;;;4.97;1.27;;;-0.80;1.00;;;;;;4985439;28;20388;-74
2023/03/28 01:44:23;;;;;;;5.75;2.15;;;-0.80;1.00;;;;;;4986826;28;20046;-79
2023/03/28 01:46:49;;;;;;;5.32;2.90;;;-0.80;1.00;;;;;;4983627;28;20033;-74
2023/03/28 01:49:32;;;;;;;8.10;2.40;;;-0.70;1.00;;;;;;4989327;28;20053;-74
2023/03/28 01:51:58;;;;;;;4.93;2.63;;;-0.60;1.00;;;;;;4986524;28;20054;-74
2023/03/28 01:54:29;;;;;;;7.15;2.50;;;-0.60;1.00;;;;;;4990979;28;21193;-73
2023/03/28 01:57:20;;;;;;;8.63;2.72;;;-0.40;1.00;;;;;;5002236;28;20046;-78
2023/03/28 02:00:11;;;;;;;4.05;2.38;;;0.00;1.00;;;;;;4987384;28;20053;-75
2023/03/28 02:03:20;;;;;;;4.72;1.88;;;0.30;1.00;;;;;;5005443;28;20065;-74
2023/03/28 02:06:07;;;;;;;8.27;1.48;;;0.60;1.00;;;;;;4999128;28;20046;-74
2023/03/28 02:08:37;;;;;;;4.95;1.52;;;0.50;1.00;;;;;;4983089;28;20102;-74
2023/03/28 02:11:32;;;;;;;3.72;2.00;;;0.40;1.00;;;;;;5005143;28;20045;-74
2023/03/28 02:14:15;;;;;;;4.78;2.78;;;0.40;1.00;;;;;;4984674;28;20042;-74
2023/03/28 02:17:14;;;;;;;4.38;1.58;;;0.40;1.00;;;;;;4980720;28;20053;-74
2023/03/28 02:20:10;;;;;;;8.13;2.15;;;0.40;1.00;;;;;;4996416;28;20042;-74
2023/03/28 02:23:10;;;;;;;6.97;1.77;;;0.30;1.00;;;;;;4998308;28;20042;-80
2023/03/28 02:25:49;;;;;;;3.65;1.25;;;0.20;1.00;;;;;;4983791;28;20528;-74
2023/03/28 02:28:40;;;;;;;5.90;1.75;;;0.00;1.00;;;;;;5000345;28;20056;-75
2023/03/28 02:31:12;;;;;;;5.05;1.60;;;-0.20;1.00;;;;;;5002879;28;20050;-75
2023/03/28 02:33:41;;;;;;;6.35;1.63;;;-0.30;1.00;;;;;;4989882;28;20050;-75
2023/03/28 02:37:02;;;;;;;6.20;1.63;;;-0.30;1.00;;;;;;4984703;28;20404;-74
2023/03/28 02:40:06;;;;;;;5.95;1.55;;;-0.40;1.00;;;;;;4915404;29;20047;-74
2023/03/28 02:43:01;;;;;;;6.45;1.27;;;-0.50;1.00;;;;;;5004283;28;20038;-74
2023/03/28 02:45:40;;;;;;;5.32;1.75;;;-0.60;1.00;;;;;;4954605;28;20042;-73
2023/03/28 02:48:50;;;;;;;6.55;1.88;;;-0.60;1.00;;;;;;4994308;28;20030;-74
2023/03/28 02:51:48;;;;;;;5.95;1.92;;;-0.50;1.00;;;;;;5008004;28;20053;-74
2023/03/28 02:54:40;;;;;;;7.78;1.70;;;-0.50;1.00;;;;;;5000776;28;20598;-74
2023/03/28 02:57:30;;;;;;;4.80;1.35;;;-0.50;1.00;;;;;;4998877;28;20042;-74
2023/03/28 03:00:11;;;;;;;6.13;1.77;;;-0.60;1.00;;;;;;4984949;28;20046;-79
2023/03/28 03:02:40;;;;;;;5.03;1.63;;;-0.70;1.00;;;;;;4995400;28;20042;-77
2023/03/28 03:05:08;;;;;;;6.03;1.42;;;-0.80;1.00;;;;;;5001967;28;20463;-75
2023/03/28 03:07:36;;;;;;;4.45;2.08;;;-0.90;1.00;;;;;;4984288;28;20046;-75
2023/03/28 03:10:07;;;;;;;5.78;1.98;;;-1.00;1.00;;;;;;5000233;28;20064;-74
2023/03/28 03:12:52;;;;;;;5.20;1.45;;;-1.00;1.00;;;;;;4984995;28;20046;-73
2023/03/28 03:15:19;;;;;;;5.32;2.05;;;-1.10;1.00;;;;;;4988286;28;20075;-73
2023/03/28 03:17:52;;;;;;;5.38;1.75;;;-0.90;1.00;;;;;;4997943;28;20506;-73
2023/03/28 03:20:25;;;;;;;;;;;-0.90;1.00;;;;;;5001183;28;20045;-73
2023/03/28 03:22:53;;;;;;;5.40;2.33;;;-1.00;1.00;;;;;;4998196;28;19910;-73
2023/03/28 03:25:19;;;;;;;4.60;1.88;;;-1.10;1.00;;;;;;4996325;28;20046;-74
2023/03/28 03:28:09;;;;;;;7.63;1.98;;;-1.10;1.00;;;;;;4994330;28;20087;-73
2023/03/28 03:30:36;;;;;;;5.95;2.10;;;-1.20;1.00;;;;;;4980862;28;20527;-74
2023/03/28 03:33:17;;;;;;;;;;;-1.20;1.00;;;;;;5001402;28;20053;-74
2023/03/28 03:35:46;;;;;;;9.45;2.35;;;-1.10;1.00;;;;;;4985852;28;19910;-73
2023/03/28 03:38:15;;;;;;;6.00;1.65;;;-1.10;1.00;;;;;;4981208;28;20037;-74
2023/03/28 03:40:41;;;;;;;6.30;1.98;;;-1.30;1.00;;;;;;5006448;28;20039;-73
2023/03/28 03:43:08;;;;;;;7.10;2.67;;;-1.30;1.00;;;;;;4988033;28;20058;-73
2023/03/28 03:45:39;;;;;;;9.20;2.75;;;-1.30;1.00;;;;;;4985640;28;20407;-76
2023/03/28 03:48:05;;;;;;;5.05;2.33;;;-1.40;1.00;;;;;;4984912;28;20766;-73
2023/03/28 03:50:32;;;;;;;5.72;2.10;;;-1.50;1.00;;;;;;4986062;28;20057;-73
2023/03/28 03:52:58;;;;;;;8.60;1.95;;;-1.60;1.00;;;;;;4985948;28;20038;-80
2023/03/28 03:55:32;;;;;;;12.07;4.13;;;-1.60;3.70;;;;;;4999123;28;20388;-76
2023/03/28 03:57:59;;;;;;;5.53;2.42;;;-1.60;4.80;;;;;;4985586;28;20501;-78
2023/03/28 04:00:27;;;;;;;5.47;1.98;;;-1.80;9.20;;;;;;4984469;28;20382;-73
2023/03/28 04:02:53;;;;;;;6.05;2.70;;;-1.90;16.50;;;;;;4985397;28;20037;-75
2023/03/28 04:05:23;;;;;;;4.57;2.33;;;-2.00;26.60;;;;;;4980710;28;20100;-78
2023/03/28 04:08:03;;;;;;;5.28;2.42;;;-1.90;33.60;;;;;;4980943;28;20049;-78
2023/03/28 04:10:36;;;;;;;5.07;1.98;;;-2.00;36.30;;;;;;5000533;28;20050;-73
2023/03/28 04:13:03;;;;;;;9.32;2.75;;;-2.10;34.00;;;;;;4988168;28;20038;-80
2023/03/28 04:15:31;;;;;;;9.73;2.28;;;-2.10;44.70;;;;;;4985014;28;20049;-73
2023/03/28 04:18:04;;;;;;;7.38;2.50;;;-2.00;59.60;;;;;;5004466;28;20053;-76
2023/03/28 04:20:35;;;;;;;7.63;3.03;;;-1.90;70.30;;;;;;4988537;28;20041;-73
2023/03/28 04:23:08;;;;;;;15.43;3.13;;;-2.00;63.50;;;;;;4990605;28;20046;-75
2023/03/28 04:25:36;;;;;;;9.52;3.53;;;-2.00;54.10;;;;;;4984175;28;20042;-75
2023/03/28 04:28:08;;;;;;;6.03;2.53;;;-2.10;56.80;;;;;;4992177;28;20487;-76
2023/03/28 04:30:37;;;;;;;10.43;2.63;;;-2.10;54.20;;;;;;4987058;28;20050;-75
2023/03/28 04:33:29;;;;;;;6.35;2.15;;;-2.30;49.90;;;;;;4977839;28;20049;-75
2023/03/28 04:36:01;;;;;;;6.57;2.40;;;-2.30;49.80;;;;;;4996708;28;20057;-75
2023/03/28 04:38:30;;;;;;;6.32;2.25;;;-2.40;55.40;;;;;;4990345;28;20042;-74
2023/03/28 04:41:04;;;;;;;7.40;2.75;;;-2.50;60.70;;;;;;4980646;28;20050;-77
2023/03/28 04:44:08;;;;;;;5.90;2.70;;;-2.50;76.50;;;;;;5001481;28;20494;-75
2023/03/28 04:46:42;;;;;;;7.35;2.30;;;-2.50;77.70;;;;;;4986553;28;20389;-74
2023/03/28 04:49:13;;;;;;;6.83;2.37;;;-2.50;84.50;;;;;;4989033;28;20046;-75
2023/03/28 04:51:39;;;;;;;6.95;3.70;;;-2.40;99.90;;;;;;5003495;28;20052;-75
2023/03/28 04:54:06;;;;;;;8.27;2.70;;;-2.50;99.00;;;;;;4988997;28;20399;-75
2023/03/28 04:56:47;;;;;;;7.28;2.50;;;-2.50;99.50;;;;;;4995450;28;20364;-74
2023/03/28 04:59:17;;;;;;;7.03;2.33;;;-2.50;98.40;;;;;;4985707;28;20046;-74
2023/03/28 05:01:48;;;;;;;10.70;2.60;;;-2.40;99.90;;;;;;4990537;28;20042;-74
2023/03/28 05:04:31;;;;;;;7.45;2.83;;;-2.50;99.20;;;;;;4992670;28;20053;-75
2023/03/28 05:07:03;;;;;;;13.20;4.10;;;-2.50;98.40;;;;;;5006212;28;20042;-78
2023/03/28 05:09:29;;;;;;;5.68;3.10;;;-2.50;98.40;;;;;;5007142;28;20065;-74
2023/03/28 05:11:56;;;;;;;11.00;4.93;;;-2.50;98.90;;;;;;5005731;28;20030;-75
2023/03/28 05:14:23;;;;;;;5.78;3.30;;;-2.50;99.40;;;;;;4987482;28;20037;-75
2023/03/28 05:16:54;;;;;;;;;;;-2.50;99.80;;;;;;4986405;28;20626;-74
2023/03/28 05:19:39;;;;;;;16.15;3.97;;;-2.60;99.90;;;;;;5008876;28;19945;-75
2023/03/28 05:22:12;;;;;;;11.25;2.92;;;-2.40;99.90;;;;;;4986986;28;20049;-75
2023/03/28 05:24:41;;;;;;;8.05;3.70;;;-2.40;99.90;;;;;;4984449;28;20379;-75
2023/03/28 05:27:16;;;;;;;8.13;3.60;;;-2.40;99.90;;;;;;4985500;28;20383;-74
2023/03/28 05:29:43;;;;;;;10.80;3.63;;;-2.40;99.90;;;;;;5002156;28;20065;-74
2023/03/28 05:32:11;;;;;;;8.75;3.45;;;-2.40;99.90;;;;;;5022103;28;20072;-75
2023/03/28 05:34:39;;;;;;;12.98;7.32;;;-2.40;99.90;;;;;;5004418;28;20037;-74
2023/03/28 05:37:05;;;;;;;10.23;5.35;;;-2.30;97.80;;;;;;5001540;28;20045;-75
2023/03/28 05:39:42;;;;;;;9.60;4.20;;;-2.20;93.40;;;;;;5008030;28;20062;-75
2023/03/28 05:42:08;;;;;;;8.75;4.63;;;-2.20;87.60;;;;;;5021153;28;20042;-75
2023/03/28 05:44:37;;;;;;;6.95;2.58;;;-2.10;82.00;;;;;;5000561;28;20061;-84
2023/03/28 05:47:22;;;;;;;7.88;3.30;;;-2.10;74.10;;;;;;5007520;28;20156;-84
2023/03/28 05:49:48;;;;;;;6.45;3.35;;;-2.00;67.20;;;;;;5006334;28;20053;-75
2023/03/28 05:52:14;;;;;;;6.88;3.15;;;-1.90;59.20;;;;;;5020798;28;20566;-75
2023/03/28 05:54:41;;;;;;;7.07;3.38;;;-1.90;51.30;;;;;;5009528;28;20046;-75
2023/03/28 05:57:10;;;;;;;6.95;3.50;;;-1.20;60.60;;;;;;5004821;28;20379;-75
2023/03/28 05:59:39;;;;;;;7.68;3.15;;;-0.30;35.40;;;;;;5005192;28;20041;-75
2023/03/28 06:02:14;;;;;;;9.30;2.83;;;0.40;1.00;;;;;;5004099;28;20046;-75
2023/03/28 06:04:42;;;;;;;6.97;2.22;;;1.40;1.00;;;;;;5004487;28;20042;-76
2023/03/28 06:07:12;;;;;;;5.75;2.53;;;2.00;1.00;;;;;;5003815;28;20041;-76
2023/03/28 06:09:39;;;;;;;4.28;1.70;;;2.00;1.00;;;;;;4997283;28;20057;-77
2023/03/28 06:12:07;;;;;;;3.75;2.45;;;2.60;99.90;;;;;;5015347;28;20049;-78
2023/03/28 06:14:37;;;;;;;2.88;2.00;;;3.40;99.90;;;;;;5005809;28;20482;-77
2023/03/28 06:17:06;;;;;;;4.95;2.60;;;4.00;99.90;;;;;;4999086;28;20049;-78
2023/03/28 06:19:43;;;;;;;4.25;1.77;;;4.20;99.90;;;;;;5000216;28;20394;-78
2023/03/28 06:22:14;;;;;;;7.15;3.88;;;4.00;99.90;;;;;;5012307;28;20046;-78
2023/03/28 06:24:47;;;;;;;11.30;3.95;;;4.20;99.90;;;;;;5007022;28;20038;-78
2023/03/28 06:27:13;;;;;;;10.65;5.10;;;4.50;99.90;;;;;;5001695;28;20395;-77
2023/03/28 06:29:39;;;;;;;13.15;5.38;;;5.30;99.90;;;;;;5007930;28;20055;-76
2023/03/28 06:32:06;;;;;;;8.77;4.15;;;5.60;99.90;;;;;;5002867;28;20037;-76
2023/03/28 06:34:32;;;;;;;7.25;3.47;;;5.40;99.90;;;;;;5003422;28;20042;-77
2023/03/28 06:37:01;;;;;;;11.55;5.80;;;5.60;99.90;;;;;;5000750;28;20038;-76
2023/03/28 06:39:40;;;;;;;12.90;5.18;;;6.20;99.90;;;;;;4997402;28;20042;-79
2023/03/28 06:42:06;;;;;;;6.40;2.80;;;6.00;99.90;;;;;;5010488;28;20348;-78
2023/03/28 06:44:43;;;;;;;6.22;3.08;;;5.80;99.90;;;;;;5021947;28;20042;-78
2023/03/28 06:47:25;;;;;;;7.28;3.00;;;5.80;99.90;;;;;;5016347;28;20134;-78
2023/03/28 06:49:52;;;;;;;5.45;2.80;;;6.30;99.90;;;;;;5005867;28;20046;-78
2023/03/28 06:52:22;;;;;;;4.75;1.98;;;6.20;99.90;;;;;;5002819;28;20041;-78
2023/03/28 06:54:50;;;;;;;9.88;3.05;;;6.70;99.90;;;;;;5002034;28;20036;-78
2023/03/28 06:57:16;;;;;;;9.63;4.07;;;6.70;99.90;;;;;;4999751;28;20041;-77
2023/03/28 06:59:44;;;;;;;8.13;2.42;;;6.90;99.90;;;;;;5021430;28;20399;-77
2023/03/28 07:02:17;;;;;;;10.95;3.35;;;6.60;99.90;;;;;;4997766;28;20038;-77
2023/03/28 07:04:44;;;;;;;4.60;2.03;;;6.40;99.90;;;;;;5013966;28;20463;-76
2023/03/28 07:07:10;;;;;;;5.05;2.33;;;6.10;99.90;;;;;;5000078;28;20368;-76
2023/03/28 07:09:36;;;;;;;5.70;2.50;;;6.40;99.90;;;;;;5002021;28;20070;-77
2023/03/28 07:12:07;;;;;;;10.63;2.83;;;6.60;99.90;;;;;;5001305;28;20034;-78
2023/03/28 07:14:33;;;;;;;9.45;3.17;;;6.50;99.90;;;;;;5002593;28;20558;-77
2023/03/28 07:17:01;;;;;;;4.95;1.92;;;7.00;99.90;;;;;;5006203;28;20486;-76
2023/03/28 07:19:27;;;;;;;5.85;2.50;;;7.30;99.90;;;;;;5004807;28;20455;-77
2023/03/28 07:21:53;;;;;;;6.75;2.55;;;7.50;99.90;;;;;;5008833;28;20038;-75
2023/03/28 07:24:21;;;;;;;6.38;2.38;;;8.00;99.90;;;;;;5002303;28;20034;-76
2023/03/28 07:27:13;;;;;;;26.85;10.93;;;8.00;99.90;;;;;;5000979;28;20034;-77
2023/03/28 07:29:39;;;;;;;356.10;220.75;;;9.00;99.90;;;;;;5003237;28;20046;-77
2023/03/28 07:32:05;;;;;;;64.80;37.33;;;9.40;99.90;;;;;;4989005;28;20042;-77
2023/03/28 07:34:32;;;;;;;17.73;9.77;;;9.70;99.90;;;;;;5003836;28;20022;-76
2023/03/28 07:37:01;;;;;;;7.15;2.55;;;8.80;99.90;;;;;;4984566;28;20371;-77
2023/03/28 07:39:46;;;;;;;6.55;2.42;;;8.20;99.90;;;;;;4999117;28;20053;-75
2023/03/28 07:42:16;;;;;;;9.13;3.28;;;8.00;99.90;;;;;;4981090;28;20150;-75
2023/03/28 07:44:42;;;;;;;6.43;2.70;;;8.20;99.90;;;;;;5005566;28;20022;-75
2023/03/28 07:47:09;;;;;;;109.88;65.22;;;8.20;99.90;;;;;;4991394;28;20037;-76
2023/03/28 07:49:35;;;;;;;22.55;7.10;;;7.90;99.90;;;;;;5006231;28;20053;-76
2023/03/28 07:52:02;;;;;;;6.57;3.53;;;8.60;99.90;;;;;;4987985;28;20037;-75
2023/03/28 07:54:28;;;;;;;21.52;7.85;;;9.00;99.90;;;;;;5010003;28;20239;-76
2023/03/28 07:56:56;;;;;;;78.20;40.53;;;9.20;99.90;;;;;;4993813;28;20037;-77
2023/03/28 07:59:49;;;;;;;8.43;3.75;;;8.60;99.90;;;;;;4986747;28;20057;-76
2023/03/28 08:02:16;;;;;;;11.00;4.10;;;8.20;99.90;;;;;;4991358;28;20045;-75
2023/03/28 08:04:42;;;;;;;9.40;3.10;;;8.10;99.90;;;;;;4989633;28;20375;-76
2023/03/28 08:07:09;;;;;;;5.68;2.75;;;7.50;99.90;;;;;;4990405;28;20038;-76
2023/03/28 08:09:38;;;;;;;6.57;3.20;;;7.60;99.90;;;;;;4988773;28;20054;-76
2023/03/28 08:12:20;;;;;;;9.25;3.50;;;7.50;99.90;;;;;;4981572;28;20053;-76
2023/03/28 08:14:47;;;;;;;11.25;2.70;;;6.80;99.90;;;;;;4990104;28;20045;-76
2023/03/28 08:17:17;;;;;;;5.68;2.50;;;7.30;99.90;;;;;;4991421;28;20041;-76
2023/03/28 08:19:44;;;;;;;8.30;2.65;;;8.80;99.90;;;;;;5006005;28;20034;-76
2023/03/28 08:22:11;;;;;;;11.40;2.72;;;9.40;99.90;;;;;;5007206;28;20047;-76
2023/03/28 08:24:47;;;;;;;8.77;2.45;;;9.60;99.90;;;;;;4987891;28;20371;-77
2023/03/28 08:27:18;;;;;;;6.93;2.30;;;9.80;99.90;;;;;;4989548;28;20045;-77
2023/03/28 08:29:47;;;;;;;10.48;3.05;;;9.60;99.90;;;;;;5008995;28;20367;-77
2023/03/28 08:32:13;;;;;;;3.80;1.83;;;8.50;99.90;;;;;;5009326;28;20084;-77
2023/03/28 08:34:40;;;;;;;7.97;2.45;;;8.10;99.90;;;;;;4999354;28;20039;-77
2023/03/28 08:37:13;;;;;;;7.32;2.50;;;8.00;99.90;;;;;;5001317;28;20037;-77
2023/03/28 08:39:41;;;;;;;6.00;2.53;;;8.60;99.90;;;;;;5003551;28;20475;-76
2023/03/28 08:42:35;;;;;;;7.10;1.88;;;9.70;99.90;;;;;;4996692;28;20352;-77
2023/03/28 08:45:42;;;;;;;69.57;49.60;;;8.80;99.90;;;;;;4994212;28;20138;-77
2023/03/28 08:48:17;;;;;;;8.07;3.55;;;10.50;99.90;;;;;;5024063;28;20056;-76
2023/03/28 08:51:18;;;;;;;10.52;3.13;;;10.40;99.90;;;;;;4990534;28;20386;-76
2023/03/28 08:53:50;;;;;;;10.23;3.30;;;10.10;99.90;;;;;;5000092;28;20034;-77
2023/03/28 08:56:17;;;;;;;11.63;5.28;;;10.30;99.90;;;;;;5000728;28;20038;-76
2023/03/28 08:59:07;;;;;;;13.10;7.18;;;10.70;99.90;;;;;;5006153;28;20506;-77
2023/03/28 09:01:34;;;;;;;10.73;5.47;;;10.40;99.90;;;;;;4990579;28;20037;-77
2023/03/28 09:04:01;;;;;;;6.00;3.03;;;10.20;99.90;;;;;;5006081;28;20041;-80
2023/03/28 09:06:42;;;;;;;6.93;2.97;;;10.90;99.90;;;;;;5001845;28;20042;-80
2023/03/28 09:09:51;;;;;;;10.02;3.53;;;10.50;99.90;;;;;;5002579;28;20088;-81
2023/03/28 09:12:55;;;;;;;9.98;3.67;;;9.50;99.90;;;;;;4999087;28;20050;-80
2023/03/28 09:15:30;;;;;;;7.93;3.90;;;9.40;99.90;;;;;;5002588;28;20042;-80
2023/03/28 09:18:09;;;;;;;8.50;4.65;;;9.80;99.90;;;;;;4986276;28;20042;-81
2023/03/28 09:20:51;;;;;;;9.30;4.38;;;9.20;99.90;;;;;;5000141;28;20049;-81
2023/03/28 09:24:03;;;;;;;7.68;2.97;;;8.80;99.90;;;;;;4998025;28;20049;-81
2023/03/28 09:27:01;;;;;;;12.10;4.18;;;8.40;99.90;;;;;;4993087;28;20435;-80
2023/03/28 09:29:33;;;;;;;9.25;3.53;;;7.80;99.90;;;;;;5009737;28;20411;-81
2023/03/28 09:32:03;;;;;;;5.40;3.67;;;6.90;99.90;;;;;;5007697;28;20080;-80
2023/03/28 09:34:40;;;;;;;14.20;3.72;;;6.60;99.90;;;;;;5011497;28;20607;-80
2023/03/28 09:37:27;;;;;;;9.60;4.13;;;6.70;99.90;;;;;;4996007;28;20042;-80
2023/03/28 09:39:58;;;;;;;10.05;3.42;;;7.30;99.90;;;;;;4998575;28;20308;-80
2023/03/28 09:42:59;;;;;;;8.60;2.75;;;7.70;99.90;;;;;;5012921;28;20053;-80
2023/03/28 09:46:01;;;;;;;12.93;4.07;;;8.50;99.90;;;;;;4994444;28;20045;-80
2023/03/28 09:48:47;;;;;;;10.35;2.65;;;10.40;99.90;;;;;;5000175;28;20055;-81
2023/03/28 09:51:18;;;;;;;5.75;2.75;;;10.40;99.90;;;;;;5012668;28;20483;-79
2023/03/28 09:53:45;;;;;;;12.70;5.70;;;9.30;99.90;;;;;;4991703;28;20039;-79
2023/03/28 09:56:17;;;;;;;12.02;2.88;;;9.50;99.90;;;;;;5000177;28;20034;-80
2023/03/28 09:58:52;;;;;;;6.97;2.70;;;10.30;99.90;;;;;;4997112;28;20046;-80
2023/03/28 10:01:46;;;;;;;3.92;1.42;;;11.10;97.80;;;;;;5002297;28;20038;-79
2023/03/28 10:04:35;;;;;;;4.40;1.83;;;9.40;97.90;;;;;;4993873;28;20484;-79
2023/03/28 10:07:43;;;;;;;4.63;1.48;;;9.40;99.90;;;;;;5009060;28;20049;-80
2023/03/28 10:10:28;;;;;;;7.78;3.38;;;8.80;99.90;;;;;;5001697;28;20055;-79
2023/03/28 10:13:04;;;;;;;8.07;4.47;;;8.90;99.90;;;;;;5002948;28;20046;-80
2023/03/28 10:15:45;;;;;;;4.30;2.05;;;9.40;98.00;;;;;;5002959;28;20477;-80
2023/03/28 10:18:31;;;;;;;7.05;1.80;;;9.60;98.30;;;;;;5005500;28;20042;-80
2023/03/28 10:21:25;;;;;;;3.60;1.70;;;9.40;96.20;;;;;;5001997;28;20060;-80
2023/03/28 10:24:07;;;;;;;5.13;1.50;;;9.90;94.90;;;;;;5020036;28;20053;-80
2023/03/28 10:26:35;;;;;;;8.68;1.95;;;9.20;93.80;;;;;;5003429;28;20491;-81
2023/03/28 10:29:07;;;;;;;4.60;1.75;;;9.30;95.90;;;;;;5007655;28;20045;-81
2023/03/28 10:31:35;;;;;;;4.70;1.52;;;9.20;98.50;;;;;;5003792;28;20051;-81
2023/03/28 10:34:30;;;;;;;3.55;1.42;;;9.90;96.50;;;;;;4996952;28;20042;-80
2023/03/28 10:37:26;;;;;;;3.97;1.20;;;10.10;93.00;;;;;;5016553;28;20390;-80
2023/03/28 10:40:17;;;;;;;4.47;1.40;;;9.60;92.30;;;;;;5011493;28;20049;-80
2023/03/28 10:43:10;;;;;;;5.00;1.95;;;10.10;93.00;;;;;;5007938;28;20050;-79
2023/03/28 10:45:54;;;;;;;4.50;2.00;;;9.70;86.70;;;;;;5002560;28;20057;-80
2023/03/28 10:48:35;;;;;;;7.78;1.75;;;9.30;89.90;;;;;;5004859;28;20049;-80
2023/03/28 10:51:14;;;;;;;5.28;1.40;;;9.50;90.60;;;;;;5002934;28;20049;-81
2023/03/28 10:54:00;;;;;;;3.72;0.98;;;9.70;92.40;;;;;;5006450;28;20029;-80
2023/03/28 10:56:53;;;;;;;5.75;1.58;;;9.90;92.20;;;;;;5001788;28;20438;-80
2023/03/28 10:59:26;;;;;;;5.22;1.50;;;10.10;92.80;;;;;;5012639;28;20043;-80
2023/03/28 11:02:46;;;;;;;3.83;1.40;;;10.50;92.30;;;;;;4997769;28;20046;-80
2023/03/28 11:05:27;;;;;;;9.20;1.42;;;10.20;91.80;;;;;;4969759;28;20526;-80
2023/03/28 11:08:10;;;;;;;5.80;1.38;;;9.80;91.60;;;;;;5005520;28;20058;-80
2023/03/28 11:11:10;;;;;;;2.75;0.90;;;9.80;91.00;;;;;;5001138;28;20051;-79
2023/03/28 11:14:15;;;;;;;11.13;1.67;;;9.10;88.90;;;;;;4994832;28;20076;-80
2023/03/28 11:16:57;;;;;;;4.85;0.73;;;9.30;91.70;;;;;;5002729;28;20053;-80
2023/03/28 11:20:16;;;;;;;3.67;0.93;;;9.60;92.30;;;;;;4982871;28;20400;-80
2023/03/28 11:23:20;;;;;;;2.30;0.85;;;10.00;88.90;;;;;;4997212;28;20395;-79
2023/03/28 11:26:19;;;;;;;4.47;1.20;;;9.90;87.30;;;;;;5000084;28;20049;-78
2023/03/28 11:28:58;;;;;;;6.70;1.60;;;9.20;91.10;;;;;;5000579;28;20081;-78
2023/03/28 11:31:46;;;;;;;3.20;1.05;;;9.30;90.90;;;;;;5016362;28;20054;-81
2023/03/28 11:34:13;;;;;;;9.25;1.50;;;9.10;91.80;;;;;;4992744;28;20039;-79
2023/03/28 11:36:52;;;;;;;40.30;24.23;;;9.70;91.90;;;;;;4997064;28;20038;-79
2023/03/28 11:39:33;;;;;;;5.75;1.77;;;10.10;92.70;;;;;;5016989;28;20062;-80
2023/03/28 11:42:07;;;;;;;6.28;1.60;;;10.30;90.80;;;;;;4996097;28;20101;-80
2023/03/28 11:44:52;;;;;;;6.47;1.15;;;10.60;92.00;;;;;;4998724;28;20479;-80
2023/03/28 11:47:31;;;;;;;7.15;1.73;;;10.00;92.20;;;;;;5001779;28;20050;-80
2023/03/28 11:50:14;;;;;;;3.17;1.70;;;10.00;92.90;;;;;;4993205;28;20046;-81
2023/03/28 11:53:03;;;;;;;7.85;1.45;;;10.20;93.00;;;;;;5001202;28;20100;-81
2023/03/28 11:55:41;;;;;;;3.45;1.48;;;10.20;91.50;;;;;;5006157;28;20045;-80
2023/03/28 11:58:26;;;;;;;4.25;2.10;;;9.80;91.10;;;;;;5002188;28;20398;-79
2023/03/28 12:01:13;;;;;;;7.80;1.33;;;10.00;90.80;;;;;;4998946;28;20053;-80
2023/03/28 12:03:53;;;;;;;7.00;1.45;;;10.10;90.30;;;;;;4997020;28;20352;-81
2023/03/28 12:06:36;;;;;;;4.38;0.90;;;10.20;91.50;;;;;;5004587;28;20049;-80
2023/03/28 12:09:23;;;;;;;11.30;2.78;;;10.50;91.80;;;;;;4999070;28;20133;-80
2023/03/28 12:11:57;;;;;;;6.28;1.38;;;10.50;90.00;;;;;;5003707;28;20414;-80
2023/03/28 12:14:54;;;;;;;3.55;1.17;;;10.30;90.00;;;;;;4999564;28;20128;-80
2023/03/28 12:17:49;;;;;;;4.22;1.25;;;10.40;90.60;;;;;;5002853;28;20399;-80
2023/03/28 12:20:45;;;;;;;10.48;3.15;;;10.30;87.90;;;;;;5000963;28;20049;-80
2023/03/28 12:23:56;;;;;;;6.35;4.38;;;9.80;89.50;;;;;;5005112;28;20049;-79
2023/03/28 12:27:06;;;;;;;9.63;6.32;;;9.80;90.10;;;;;;5010972;28;20502;-79
2023/03/28 12:29:47;;;;;;;4.30;2.22;;;9.90;91.70;;;;;;5009420;28;20053;-79
2023/03/28 12:32:35;;;;;;;5.50;1.63;;;10.40;89.30;;;;;;5002367;28;20408;-78
2023/03/28 12:35:06;;;;;;;8.03;3.50;;;10.30;87.10;;;;;;4998242;28;20140;-80
2023/03/28 12:38:17;;;;;;;7.93;2.55;;;10.00;87.20;;;;;;4997139;28;20054;-79
2023/03/28 12:41:02;;;;;;;5.63;2.47;;;10.20;88.40;;;;;;5012123;28;20041;-79
2023/03/28 12:44:00;;;;;;;5.03;2.55;;;10.30;86.80;;;;;;4999979;28;20026;-79
2023/03/28 12:46:56;;;;;;;11.90;2.95;;;10.50;85.60;;;;;;5002633;28;20049;-78
2023/03/28 12:49:46;;;;;;;7.57;2.53;;;10.10;91.00;;;;;;5001670;28;20372;-78
2023/03/28 12:52:24;;;;;;;4.45;1.48;;;10.10;90.30;;;;;;4999301;28;20042;-78
2023/03/28 12:54:57;;;;;;;3.63;2.08;;;10.50;90.20;;;;;;5003404;28;20053;-78
2023/03/28 12:57:39;;;;;;;5.88;1.75;;;10.30;91.10;;;;;;5002149;28;20404;-78
2023/03/28 13:00:26;;;;;;;4.32;1.00;;;10.70;90.10;;;;;;4998732;28;20042;-79
2023/03/28 13:03:21;;;;;;;2.97;1.00;;;11.00;88.30;;;;;;5010584;28;20391;-77
2023/03/28 13:06:04;;;;;;;6.60;1.70;;;10.90;85.10;;;;;;5003097;28;20030;-76
2023/03/28 13:08:58;;;;;;;4.20;1.05;;;10.90;85.60;;;;;;4997716;28;20476;-77
2023/03/28 13:11:45;;;;;;;4.43;1.27;;;10.50;82.70;;;;;;5002177;28;20049;-84
2023/03/28 13:14:23;;;;;;;3.63;1.20;;;10.80;88.10;;;;;;5003082;28;20030;-77
2023/03/28 13:16:57;;;;;;;3.03;1.00;;;11.10;86.00;;;;;;4999055;28;20041;-76
2023/03/28 13:19:45;;;;;;;1.90;1.00;;;10.90;82.50;;;;;;5004618;28;20041;-77
2023/03/28 13:22:53;;;;;;;6.20;1.15;;;11.30;86.80;;;;;;5008274;28;20040;-76
2023/03/28 13:25:36;;;;;;;8.52;2.45;;;11.10;83.40;;;;;;4993487;28;20579;-77
2023/03/28 13:28:11;;;;;;;4.57;1.40;;;10.90;87.00;;;;;;5007095;28;20050;-76
2023/03/28 13:30:43;;;;;;;3.75;1.30;;;10.90;83.50;;;;;;5000565;28;20052;-76
2023/03/28 13:33:28;;;;;;;4.50;1.15;;;10.50;85.40;;;;;;5004464;28;20049;-75
2023/03/28 13:35:57;;;;;;;4.60;1.30;;;10.60;85.80;;;;;;5007025;28;20624;-76
2023/03/28 13:38:26;;;;;;;9.95;3.72;;;10.60;84.30;;;;;;5008669;28;20039;-77
2023/03/28 13:40:58;;;;;;;4.95;1.52;;;10.70;83.80;;;;;;5007899;28;20045;-77
2023/03/28 13:43:49;;;;;;;4.63;1.42;;;10.70;86.10;;;;;;5005522;28;20348;-79
2023/03/28 13:46:31;;;;;;;7.93;4.85;;;10.80;90.30;;;;;;5003816;28;20443;-77
2023/03/28 13:49:15;;;;;;;13.85;2.35;;;10.90;89.40;;;;;;5004647;28;20054;-77